sensor_id;sensor_type;location;lat;lon;timestamp;pressure;altitude;pressure_sealevel;temperature;humidity
71938;BME280;59810;48.800;9.086;2023-04-26T00:00:31;97682.78;;;6.52;83.97
71938;BME280;59810;48.800;9.086;2023-04-26T00:02:59;97684.84;;;6.50;83.41
71938;BME280;59810;48.800;9.086;2023-04-26T00:05:25;97685.44;;;6.52;83.00
71938;BME280;59810;48.800;9.086;2023-04-26T00:07:53;97674.13;;;6.50;83.27
71938;BME280;59810;48.800;9.086;2023-04-26T00:10:18;97677.81;;;6.49;83.12
71938;BME280;59810;48.800;9.086;2023-04-26T00:12:44;97681.56;;;6.48;83.45
71938;BME280;59810;48.800;9.086;2023-04-26T00:15:09;97679.09;;;6.47;83.57
71938;BME280;59810;48.800;9.086;2023-04-26T00:17:38;97677.44;;;6.46;84.63
71938;BME280;59810;48.800;9.086;2023-04-26T00:20:04;97678.28;;;6.46;85.04
71938;BME280;59810;48.800;9.086;2023-04-26T00:22:34;97679.53;;;6.44;85.11
71938;BME280;59810;48.800;9.086;2023-04-26T00:25:02;97685.34;;;6.41;85.68
71938;BME280;59810;48.800;9.086;2023-04-26T00:27:27;97680.22;;;6.39;85.72
71938;BME280;59810;48.800;9.086;2023-04-26T00:29:52;97681.09;;;6.33;85.26
71938;BME280;59810;48.800;9.086;2023-04-26T00:32:18;97675.72;;;6.33;84.98
71938;BME280;59810;48.800;9.086;2023-04-26T00:34:43;97681.31;;;6.32;84.89
71938;BME280;59810;48.800;9.086;2023-04-26T00:37:08;97678.72;;;6.25;84.48
71938;BME280;59810;48.800;9.086;2023-04-26T00:39:34;97678.97;;;6.17;82.84
71938;BME280;59810;48.800;9.086;2023-04-26T00:41:59;97679.78;;;6.17;83.42
71938;BME280;59810;48.800;9.086;2023-04-26T00:44:26;97676.91;;;6.19;82.92
71938;BME280;59810;48.800;9.086;2023-04-26T00:46:52;97681.84;;;6.22;82.86
71938;BME280;59810;48.800;9.086;2023-04-26T00:49:19;97684.50;;;6.22;81.30
71938;BME280;59810;48.800;9.086;2023-04-26T00:51:47;97676.09;;;6.18;81.44
71938;BME280;59810;48.800;9.086;2023-04-26T00:54:13;97681.66;;;6.17;80.03
71938;BME280;59810;48.800;9.086;2023-04-26T00:56:40;97670.78;;;6.12;80.23
71938;BME280;59810;48.800;9.086;2023-04-26T00:59:06;97679.84;;;6.11;81.84
71938;BME280;59810;48.800;9.086;2023-04-26T01:01:31;97682.97;;;6.08;83.36
71938;BME280;59810;48.800;9.086;2023-04-26T01:03:57;97684.03;;;6.07;82.83
71938;BME280;59810;48.800;9.086;2023-04-26T01:06:22;97678.88;;;6.05;82.55
71938;BME280;59810;48.800;9.086;2023-04-26T01:08:52;97682.59;;;6.04;82.71
71938;BME280;59810;48.800;9.086;2023-04-26T01:11:21;97695.19;;;6.04;83.04
71938;BME280;59810;48.800;9.086;2023-04-26T01:13:47;97697.25;;;6.02;83.73
71938;BME280;59810;48.800;9.086;2023-04-26T01:16:14;97686.97;;;5.99;83.45
71938;BME280;59810;48.800;9.086;2023-04-26T01:18:40;97690.09;;;5.96;84.98
71938;BME280;59810;48.800;9.086;2023-04-26T01:21:05;97685.63;;;5.83;86.41
71938;BME280;59810;48.800;9.086;2023-04-26T01:23:31;97680.59;;;5.68;87.39
71938;BME280;59810;48.800;9.086;2023-04-26T01:25:58;97679.22;;;5.59;88.25
71938;BME280;59810;48.800;9.086;2023-04-26T01:28:24;97676.78;;;5.51;88.73
71938;BME280;59810;48.800;9.086;2023-04-26T01:30:49;97670.06;;;5.42;89.20
71938;BME280;59810;48.800;9.086;2023-04-26T01:33:15;97680.94;;;5.47;88.70
71938;BME280;59810;48.800;9.086;2023-04-26T01:35:40;97685.03;;;5.49;88.20
71938;BME280;59810;48.800;9.086;2023-04-26T01:38:06;97687.13;;;5.47;87.48
71938;BME280;59810;48.800;9.086;2023-04-26T01:40:32;97676.78;;;5.51;87.60
71938;BME280;59810;48.800;9.086;2023-04-26T01:43:00;97684.41;;;5.54;87.24
71938;BME280;59810;48.800;9.086;2023-04-26T01:45:27;97678.63;;;5.57;86.78
71938;BME280;59810;48.800;9.086;2023-04-26T01:47:54;97684.41;;;5.54;86.65
71938;BME280;59810;48.800;9.086;2023-04-26T01:50:20;97686.88;;;5.55;86.38
71938;BME280;59810;48.800;9.086;2023-04-26T01:52:45;97686.28;;;5.53;86.06
71938;BME280;59810;48.800;9.086;2023-04-26T01:55:10;97680.69;;;5.55;86.50
71938;BME280;59810;48.800;9.086;2023-04-26T01:57:38;97672.88;;;5.53;85.69
71938;BME280;59810;48.800;9.086;2023-04-26T02:00:04;97670.00;;;5.55;86.78
71938;BME280;59810;48.800;9.086;2023-04-26T02:02:29;97672.44;;;5.56;86.15
71938;BME280;59810;48.800;9.086;2023-04-26T02:04:55;97673.72;;;5.47;87.62
71938;BME280;59810;48.800;9.086;2023-04-26T02:07:20;97663.13;;;5.34;89.42
71938;BME280;59810;48.800;9.086;2023-04-26T02:09:45;97672.66;;;5.23;90.70
71938;BME280;59810;48.800;9.086;2023-04-26T02:12:13;97670.19;;;5.22;90.12
71938;BME280;59810;48.800;9.086;2023-04-26T02:14:39;97670.00;;;5.17;90.77
71938;BME280;59810;48.800;9.086;2023-04-26T02:17:04;97670.59;;;5.19;91.05
71938;BME280;59810;48.800;9.086;2023-04-26T02:19:33;97673.50;;;5.17;91.30
71938;BME280;59810;48.800;9.086;2023-04-26T02:22:00;97670.69;;;5.06;91.43
71938;BME280;59810;48.800;9.086;2023-04-26T02:24:26;97673.56;;;5.04;92.10
71938;BME280;59810;48.800;9.086;2023-04-26T02:26:51;97680.59;;;4.98;92.29
71938;BME280;59810;48.800;9.086;2023-04-26T02:29:18;97682.22;;;5.06;91.76
71938;BME280;59810;48.800;9.086;2023-04-26T02:31:44;97677.63;;;5.13;91.30
71938;BME280;59810;48.800;9.086;2023-04-26T02:34:09;97681.53;;;5.17;90.62
71938;BME280;59810;48.800;9.086;2023-04-26T02:36:34;97671.22;;;5.21;90.80
71938;BME280;59810;48.800;9.086;2023-04-26T02:39:00;97678.63;;;5.25;89.80
71938;BME280;59810;48.800;9.086;2023-04-26T02:41:25;97677.97;;;5.30;90.58
71938;BME280;59810;48.800;9.086;2023-04-26T02:43:51;97677.53;;;5.33;89.73
71938;BME280;59810;48.800;9.086;2023-04-26T02:46:17;97683.06;;;5.38;89.69
71938;BME280;59810;48.800;9.086;2023-04-26T02:48:42;97682.03;;;5.39;89.40
71938;BME280;59810;48.800;9.086;2023-04-26T02:51:07;97682.03;;;5.39;88.78
71938;BME280;59810;48.800;9.086;2023-04-26T02:53:33;97672.13;;;5.40;88.63
71938;BME280;59810;48.800;9.086;2023-04-26T02:55:58;97679.94;;;5.41;88.84
71938;BME280;59810;48.800;9.086;2023-04-26T02:58:25;97675.63;;;5.40;88.46
71938;BME280;59810;48.800;9.086;2023-04-26T03:00:50;97677.50;;;5.40;88.52
71938;BME280;59810;48.800;9.086;2023-04-26T03:03:16;97679.59;;;5.31;89.72
71938;BME280;59810;48.800;9.086;2023-04-26T03:05:41;97680.88;;;5.28;89.71
71938;BME280;59810;48.800;9.086;2023-04-26T03:08:07;97687.84;;;5.29;89.23
71938;BME280;59810;48.800;9.086;2023-04-26T03:10:33;97678.41;;;5.27;88.86
71938;BME280;59810;48.800;9.086;2023-04-26T03:12:58;97670.97;;;5.29;88.71
71938;BME280;59810;48.800;9.086;2023-04-26T03:15:23;97680.88;;;5.28;88.58
71938;BME280;59810;48.800;9.086;2023-04-26T03:17:49;97687.84;;;5.29;88.83
71938;BME280;59810;48.800;9.086;2023-04-26T03:20:14;97681.94;;;5.21;90.32
71938;BME280;59810;48.800;9.086;2023-04-26T03:22:40;97680.28;;;5.20;91.16
71938;BME280;59810;48.800;9.086;2023-04-26T03:25:05;97686.69;;;5.12;91.69
71938;BME280;59810;48.800;9.086;2023-04-26T03:27:32;97685.88;;;5.12;91.34
71938;BME280;59810;48.800;9.086;2023-04-26T03:29:57;97690.41;;;5.11;91.37
71938;BME280;59810;48.800;9.086;2023-04-26T03:32:23;97685.88;;;5.12;91.55
71938;BME280;59810;48.800;9.086;2023-04-26T03:34:48;97687.13;;;5.09;91.43
71938;BME280;59810;48.800;9.086;2023-04-26T03:37:14;97679.09;;;5.09;91.88
71938;BME280;59810;48.800;9.086;2023-04-26T03:39:39;97682.88;;;4.95;92.90
71938;BME280;59810;48.800;9.086;2023-04-26T03:42:07;97675.53;;;4.77;94.49
71938;BME280;59810;48.800;9.086;2023-04-26T03:44:32;97670.00;;;4.72;93.93
71938;BME280;59810;48.800;9.086;2023-04-26T03:46:58;97666.31;;;4.73;93.25
71938;BME280;59810;48.800;9.086;2023-04-26T03:49:26;97676.84;;;4.61;94.32
71938;BME280;59810;48.800;9.086;2023-04-26T03:51:52;97677.06;;;4.47;94.96
71938;BME280;59810;48.800;9.086;2023-04-26T03:54:17;97671.34;;;4.43;94.69
71938;BME280;59810;48.800;9.086;2023-04-26T03:56:42;97676.72;;;4.30;95.87
71938;BME280;59810;48.800;9.086;2023-04-26T03:59:08;97681.66;;;4.20;96.05
71938;BME280;59810;48.800;9.086;2023-04-26T04:01:34;97695.22;;;4.12;96.71
71938;BME280;59810;48.800;9.086;2023-04-26T04:03:59;97682.50;;;4.00;97.18
71938;BME280;59810;48.800;9.086;2023-04-26T04:06:27;97680.88;;;3.93;97.21
71938;BME280;59810;48.800;9.086;2023-04-26T04:08:52;97682.31;;;3.95;97.25
71938;BME280;59810;48.800;9.086;2023-04-26T04:11:17;97682.50;;;3.87;97.37
71938;BME280;59810;48.800;9.086;2023-04-26T04:13:43;97686.63;;;3.83;97.61
71938;BME280;59810;48.800;9.086;2023-04-26T04:16:10;97686.22;;;3.80;98.15
71938;BME280;59810;48.800;9.086;2023-04-26T04:18:36;97674.09;;;3.77;98.35
71938;BME280;59810;48.800;9.086;2023-04-26T04:21:04;97679.22;;;3.72;98.78
71938;BME280;59810;48.800;9.086;2023-04-26T04:23:31;97677.59;;;3.71;98.88
71938;BME280;59810;48.800;9.086;2023-04-26T04:25:56;97679.22;;;3.72;98.75
71938;BME280;59810;48.800;9.086;2023-04-26T04:28:22;97679.44;;;3.77;98.13
71938;BME280;59810;48.800;9.086;2023-04-26T04:30:47;97676.34;;;3.80;98.16
71938;BME280;59810;48.800;9.086;2023-04-26T04:33:13;97678.59;;;3.83;98.13
71938;BME280;59810;48.800;9.086;2023-04-26T04:35:40;97685.38;;;3.86;98.00
71938;BME280;59810;48.800;9.086;2023-04-26T04:38:08;97683.75;;;3.91;97.70
71938;BME280;59810;48.800;9.086;2023-04-26T04:40:33;97685.16;;;3.87;97.61
71938;BME280;59810;48.800;9.086;2023-04-26T04:42:58;97696.06;;;3.86;97.72
71938;BME280;59810;48.800;9.086;2023-04-26T04:45:25;97687.84;;;3.87;98.70
71938;BME280;59810;48.800;9.086;2023-04-26T04:47:53;97691.13;;;3.89;98.83
71938;BME280;59810;48.800;9.086;2023-04-26T04:50:21;97686.22;;;3.99;98.78
71938;BME280;59810;48.800;9.086;2023-04-26T04:52:47;97690.31;;;4.02;98.61
71938;BME280;59810;48.800;9.086;2023-04-26T04:55:13;97688.69;;;4.01;99.64
71938;BME280;59810;48.800;9.086;2023-04-26T04:57:38;97691.13;;;4.02;99.37
71938;BME280;59810;48.800;9.086;2023-04-26T05:00:04;97697.09;;;4.04;99.73
71938;BME280;59810;48.800;9.086;2023-04-26T05:02:37;97705.72;;;4.06;99.83
71938;BME280;59810;48.800;9.086;2023-04-26T05:05:03;97707.16;;;4.16;99.54
71938;BME280;59810;48.800;9.086;2023-04-26T05:07:32;97708.81;;;4.23;98.92
71938;BME280;59810;48.800;9.086;2023-04-26T05:09:58;97712.91;;;4.26;99.03
71938;BME280;59810;48.800;9.086;2023-04-26T05:12:23;97712.09;;;4.25;99.78
71938;BME280;59810;48.800;9.086;2023-04-26T05:14:51;97718.88;;;4.28;99.90
71938;BME280;59810;48.800;9.086;2023-04-26T05:17:16;97724.41;;;4.33;100.00
71938;BME280;59810;48.800;9.086;2023-04-26T05:19:42;97719.03;;;4.40;100.00
71938;BME280;59810;48.800;9.086;2023-04-26T05:22:07;97724.19;;;4.41;100.00
71938;BME280;59810;48.800;9.086;2023-04-26T05:24:33;97727.47;;;4.36;100.00
71938;BME280;59810;48.800;9.086;2023-04-26T05:26:58;97728.31;;;4.37;100.00
71938;BME280;59810;48.800;9.086;2023-04-26T05:29:28;97728.09;;;4.38;100.00
71938;BME280;59810;48.800;9.086;2023-04-26T05:31:55;97736.50;;;4.42;100.00
71938;BME280;59810;48.800;9.086;2023-04-26T05:34:22;97738.97;;;4.44;98.94
71938;BME280;59810;48.800;9.086;2023-04-26T05:36:47;97742.44;;;4.51;98.26
71938;BME280;59810;48.800;9.086;2023-04-26T05:39:15;97737.13;;;4.57;98.08
71938;BME280;59810;48.800;9.086;2023-04-26T05:41:41;97742.44;;;4.64;97.77
71938;BME280;59810;48.800;9.086;2023-04-26T05:44:08;97738.50;;;4.73;97.79
71938;BME280;59810;48.800;9.086;2023-04-26T05:46:34;97749.78;;;4.82;97.41
71938;BME280;59810;48.800;9.086;2023-04-26T05:48:59;97757.59;;;4.90;96.50
71938;BME280;59810;48.800;9.086;2023-04-26T05:51:24;97740.28;;;4.99;96.00
71938;BME280;59810;48.800;9.086;2023-04-26T05:53:50;97743.53;;;5.08;95.23
71938;BME280;59810;48.800;9.086;2023-04-26T05:56:15;97744.16;;;5.10;93.72
71938;BME280;59810;48.800;9.086;2023-04-26T05:58:41;97743.97;;;5.05;93.88
71938;BME280;59810;48.800;9.086;2023-04-26T06:01:06;97753.59;;;5.12;93.59
71938;BME280;59810;48.800;9.086;2023-04-26T06:03:32;97753.94;;;5.67;100.00
71938;BME280;59810;48.800;9.086;2023-04-26T06:06:00;97739.63;;;5.86;100.00
71938;BME280;59810;48.800;9.086;2023-04-26T06:08:25;97743.59;;;6.09;100.00
71938;BME280;59810;48.800;9.086;2023-04-26T06:10:52;97746.78;;;6.67;100.00
71938;BME280;59810;48.800;9.086;2023-04-26T06:13:17;97756.16;;;6.76;89.93
71938;BME280;59810;48.800;9.086;2023-04-26T06:15:43;97756.31;;;6.81;94.57
71938;BME280;59810;48.800;9.086;2023-04-26T06:18:08;97765.72;;;6.72;85.37
71938;BME280;59810;48.800;9.086;2023-04-26T06:20:33;97753.41;;;6.65;85.84
71938;BME280;59810;48.800;9.086;2023-04-26T06:23:00;97760.56;;;6.71;86.18
71938;BME280;59810;48.800;9.086;2023-04-26T06:25:25;97762.72;;;6.80;92.05
71938;BME280;59810;48.800;9.086;2023-04-26T06:27:50;97761.09;;;6.98;87.55
71938;BME280;59810;48.800;9.086;2023-04-26T06:30:18;97768.66;;;6.89;80.39
71938;BME280;59810;48.800;9.086;2023-04-26T06:32:43;97770.19;;;6.78;81.02
71938;BME280;59810;48.800;9.086;2023-04-26T06:35:09;97770.84;;;6.74;81.45
71938;BME280;59810;48.800;9.086;2023-04-26T06:37:36;97773.53;;;6.74;81.91
71938;BME280;59810;48.800;9.086;2023-04-26T06:40:03;97774.22;;;7.06;84.75
71938;BME280;59810;48.800;9.086;2023-04-26T06:42:29;97771.69;;;7.11;77.13
71938;BME280;59810;48.800;9.086;2023-04-26T06:44:54;97771.63;;;7.17;78.91
71938;BME280;59810;48.800;9.086;2023-04-26T06:47:20;97772.19;;;7.38;81.54
71938;BME280;59810;48.800;9.086;2023-04-26T06:49:45;97759.53;;;7.27;77.94
71938;BME280;59810;48.800;9.086;2023-04-26T06:52:11;97766.31;;;7.11;75.14
71938;BME280;59810;48.800;9.086;2023-04-26T06:54:36;97768.78;;;6.94;74.93
71938;BME280;59810;48.800;9.086;2023-04-26T06:57:04;97766.63;;;6.84;76.97
71938;BME280;59810;48.800;9.086;2023-04-26T06:59:29;97764.53;;;6.86;77.95
71938;BME280;59810;48.800;9.086;2023-04-26T07:01:55;97770.72;;;6.87;78.64
71938;BME280;59810;48.800;9.086;2023-04-26T07:04:20;97765.81;;;6.84;77.95
71938;BME280;59810;48.800;9.086;2023-04-26T07:06:45;97761.91;;;6.62;73.73
71938;BME280;59810;48.800;9.086;2023-04-26T07:09:11;97760.84;;;6.63;74.97
71938;BME280;59810;48.800;9.086;2023-04-26T07:11:37;97756.69;;;6.67;75.34
71938;BME280;59810;48.800;9.086;2023-04-26T07:14:03;97749.38;;;6.74;75.27
71938;BME280;59810;48.800;9.086;2023-04-26T07:16:29;97753.47;;;6.76;75.70
71938;BME280;59810;48.800;9.086;2023-04-26T07:18:57;97746.41;;;6.82;73.98
71938;BME280;59810;48.800;9.086;2023-04-26T07:21:23;97749.25;;;6.87;74.28
71938;BME280;59810;48.800;9.086;2023-04-26T07:23:52;97752.53;;;6.89;74.15
71938;BME280;59810;48.800;9.086;2023-04-26T07:26:18;97756.53;;;6.80;72.79
71938;BME280;59810;48.800;9.086;2023-04-26T07:28:43;97748.38;;;6.93;77.02
71938;BME280;59810;48.800;9.086;2023-04-26T07:31:08;97745.97;;;6.85;71.50
71938;BME280;59810;48.800;9.086;2023-04-26T07:33:36;97739.56;;;6.86;70.32
71938;BME280;59810;48.800;9.086;2023-04-26T07:36:02;97739.41;;;6.81;71.63
71938;BME280;59810;48.800;9.086;2023-04-26T07:38:27;97738.81;;;6.97;71.48
71938;BME280;59810;48.800;9.086;2023-04-26T07:40:55;97742.91;;;7.00;70.22
71938;BME280;59810;48.800;9.086;2023-04-26T07:43:22;97740.16;;;7.06;69.98
71938;BME280;59810;48.800;9.086;2023-04-26T07:45:50;97747.97;;;7.08;70.24
71938;BME280;59810;48.800;9.086;2023-04-26T07:48:18;97737.53;;;7.00;71.57
71938;BME280;59810;48.800;9.086;2023-04-26T07:50:45;97743.06;;;7.05;72.53
71938;BME280;59810;48.800;9.086;2023-04-26T07:53:11;97747.28;;;7.12;74.27
71938;BME280;59810;48.800;9.086;2023-04-26T07:55:36;97737.78;;;7.16;70.85
71938;BME280;59810;48.800;9.086;2023-04-26T07:58:02;97745.81;;;7.16;68.91
71938;BME280;59810;48.800;9.086;2023-04-26T08:00:28;97741.56;;;7.09;68.00
71938;BME280;59810;48.800;9.086;2023-04-26T08:02:54;97745.19;;;7.14;69.81
71938;BME280;59810;48.800;9.086;2023-04-26T08:05:19;97749.84;;;7.07;67.51
71938;BME280;59810;48.800;9.086;2023-04-26T08:07:44;97749.03;;;7.07;66.80
71938;BME280;59810;48.800;9.086;2023-04-26T08:10:10;97754.31;;;7.13;65.63
71938;BME280;59810;48.800;9.086;2023-04-26T08:12:36;97748.94;;;7.13;66.14
71938;BME280;59810;48.800;9.086;2023-04-26T08:15:03;97748.50;;;7.16;67.96
71938;BME280;59810;48.800;9.086;2023-04-26T08:17:31;97755.44;;;7.24;66.83
71938;BME280;59810;48.800;9.086;2023-04-26T08:19:57;97758.19;;;7.36;65.61
71938;BME280;59810;48.800;9.086;2023-04-26T08:22:23;97756.16;;;7.49;65.34
71938;BME280;59810;48.800;9.086;2023-04-26T08:24:49;97756.78;;;7.63;65.38
71938;BME280;59810;48.800;9.086;2023-04-26T08:27:16;97770.78;;;7.84;65.70
71938;BME280;59810;48.800;9.086;2023-04-26T08:29:42;97762.44;;;8.15;66.08
71938;BME280;59810;48.800;9.086;2023-04-26T08:32:07;97757.88;;;8.27;60.90
71938;BME280;59810;48.800;9.086;2023-04-26T08:34:32;97759.91;;;8.43;60.13
71938;BME280;59810;48.800;9.086;2023-04-26T08:36:58;97757.94;;;8.39;62.55
71938;BME280;59810;48.800;9.086;2023-04-26T08:39:26;97753.03;;;8.59;62.00
71938;BME280;59810;48.800;9.086;2023-04-26T08:41:58;97763.91;;;8.76;61.36
71938;BME280;59810;48.800;9.086;2023-04-26T08:44:30;97754.19;;;8.87;60.99
71938;BME280;59810;48.800;9.086;2023-04-26T08:47:17;97755.00;;;8.99;60.16
71938;BME280;59810;48.800;9.086;2023-04-26T08:49:45;97769.38;;;9.04;60.51
71938;BME280;59810;48.800;9.086;2023-04-26T08:52:17;97763.06;;;9.11;60.30
71938;BME280;59810;48.800;9.086;2023-04-26T08:54:50;97768.09;;;9.19;59.39
71938;BME280;59810;48.800;9.086;2023-04-26T08:57:17;97757.03;;;9.32;57.87
71938;BME280;59810;48.800;9.086;2023-04-26T08:59:45;97759.81;;;9.37;58.39
71938;BME280;59810;48.800;9.086;2023-04-26T09:02:16;97770.59;;;9.37;57.25
71938;BME280;59810;48.800;9.086;2023-04-26T09:04:44;97766.84;;;9.38;57.03
71938;BME280;59810;48.800;9.086;2023-04-26T09:07:18;97773.09;;;9.27;58.80
71938;BME280;59810;48.800;9.086;2023-04-26T09:09:48;97766.16;;;9.31;58.07
71938;BME280;59810;48.800;9.086;2023-04-26T09:12:18;97770.41;;;9.27;57.92
71938;BME280;59810;48.800;9.086;2023-04-26T09:14:45;97763.25;;;9.32;58.35
71938;BME280;59810;48.800;9.086;2023-04-26T09:17:31;97767.41;;;9.12;59.13
71938;BME280;59810;48.800;9.086;2023-04-26T09:19:57;97762.59;;;9.14;62.47
71938;BME280;59810;48.800;9.086;2023-04-26T09:22:30;97765.00;;;9.27;58.84
71938;BME280;59810;48.800;9.086;2023-04-26T09:25:00;97760.97;;;9.41;59.78
71938;BME280;59810;48.800;9.086;2023-04-26T09:30:16;97756.19;;;9.43;58.32
71938;BME280;59810;48.800;9.086;2023-04-26T09:37:55;97744.91;;;9.75;55.80
71938;BME280;59810;48.800;9.086;2023-04-26T09:40:22;97742.47;;;9.73;57.45
71938;BME280;59810;48.800;9.086;2023-04-26T09:45:24;97731.25;;;10.10;58.17
71938;BME280;59810;48.800;9.086;2023-04-26T09:47:49;97742.69;;;9.72;54.79
71938;BME280;59810;48.800;9.086;2023-04-26T09:50:28;97738.44;;;10.04;56.87
71938;BME280;59810;48.800;9.086;2023-04-26T09:52:55;97740.44;;;10.25;55.47
71938;BME280;59810;48.800;9.086;2023-04-26T09:55:28;97736.84;;;10.37;54.19
71938;BME280;59810;48.800;9.086;2023-04-26T09:57:55;97734.84;;;10.66;54.18
71938;BME280;59810;48.800;9.086;2023-04-26T10:00:23;97728.63;;;10.82;56.17
71938;BME280;59810;48.800;9.086;2023-04-26T10:02:51;97735.75;;;11.10;55.31
71938;BME280;59810;48.800;9.086;2023-04-26T10:05:17;97737.53;;;11.21;53.98
71938;BME280;59810;48.800;9.086;2023-04-26T10:07:43;97732.47;;;11.30;53.19
71938;BME280;59810;48.800;9.086;2023-04-26T10:10:11;97728.59;;;11.42;54.90
71938;BME280;59810;48.800;9.086;2023-04-26T10:12:36;97723.34;;;11.58;54.32
71938;BME280;59810;48.800;9.086;2023-04-26T10:15:05;97724.25;;;11.41;51.00
71938;BME280;59810;48.800;9.086;2023-04-26T10:17:32;97724.31;;;11.03;50.61
71938;BME280;59810;48.800;9.086;2023-04-26T10:19:58;97720.91;;;10.90;50.48
71938;BME280;59810;48.800;9.086;2023-04-26T10:22:27;97729.78;;;10.69;52.37
71938;BME280;59810;48.800;9.086;2023-04-26T10:24:55;97724.34;;;10.31;51.82
71938;BME280;59810;48.800;9.086;2023-04-26T10:35:17;97724.56;;;10.63;55.03
71938;BME280;59810;48.800;9.086;2023-04-26T10:40:28;97721.28;;;10.77;54.79
71938;BME280;59810;48.800;9.086;2023-04-26T10:45:40;97716.31;;;10.91;54.20
71938;BME280;59810;48.800;9.086;2023-04-26T10:48:17;97722.72;;;10.85;53.19
71938;BME280;59810;48.800;9.086;2023-04-26T10:53:27;97716.06;;;10.93;53.42
71938;BME280;59810;48.800;9.086;2023-04-26T10:55:52;97714.06;;;11.05;55.21
71938;BME280;59810;48.800;9.086;2023-04-26T10:58:39;97704.22;;;11.15;51.58
71938;BME280;59810;48.800;9.086;2023-04-26T11:03:42;97708.31;;;11.18;49.80
71938;BME280;59810;48.800;9.086;2023-04-26T11:06:08;97704.47;;;11.14;51.87
71938;BME280;59810;48.800;9.086;2023-04-26T11:08:34;97710.00;;;11.24;50.25
71938;BME280;59810;48.800;9.086;2023-04-26T11:13:26;97705.91;;;11.70;48.84
71938;BME280;59810;48.800;9.086;2023-04-26T11:15:53;97702.00;;;11.83;48.88
71938;BME280;59810;48.800;9.086;2023-04-26T11:18:19;97704.69;;;11.78;48.48
71938;BME280;59810;48.800;9.086;2023-04-26T11:20:45;97695.78;;;11.82;49.60
71938;BME280;59810;48.800;9.086;2023-04-26T11:23:12;97690.13;;;11.84;50.05
71938;BME280;59810;48.800;9.086;2023-04-26T11:25:41;97690.16;;;11.89;49.40
71938;BME280;59810;48.800;9.086;2023-04-26T11:28:08;97677.00;;;12.03;52.91
71938;BME280;59810;48.800;9.086;2023-04-26T11:30:36;97677.09;;;11.81;49.32
71938;BME280;59810;48.800;9.086;2023-04-26T11:33:02;97673.50;;;12.02;48.80
71938;BME280;59810;48.800;9.086;2023-04-26T11:35:37;97667.84;;;12.04;49.61
71938;BME280;59810;48.800;9.086;2023-04-26T11:38:03;97666.28;;;11.81;48.88
71938;BME280;59810;48.800;9.086;2023-04-26T11:40:30;97659.03;;;11.87;50.13
71938;BME280;59810;48.800;9.086;2023-04-26T11:43:02;97658.50;;;11.63;49.07
71938;BME280;59810;48.800;9.086;2023-04-26T11:45:30;97661.25;;;11.68;49.98
71938;BME280;59810;48.800;9.086;2023-04-26T11:47:56;97657.75;;;11.40;50.04
71938;BME280;59810;48.800;9.086;2023-04-26T11:50:24;97653.84;;;11.58;48.29
71938;BME280;59810;48.800;9.086;2023-04-26T11:52:54;97647.13;;;11.88;47.67
71938;BME280;59810;48.800;9.086;2023-04-26T11:55:26;97639.63;;;11.95;48.26
71938;BME280;59810;48.800;9.086;2023-04-26T11:57:54;97637.28;;;12.03;46.91
71938;BME280;59810;48.800;9.086;2023-04-26T12:00:23;97640.22;;;12.39;49.07
71938;BME280;59810;48.800;9.086;2023-04-26T12:02:51;97635.03;;;12.80;45.49
71938;BME280;59810;48.800;9.086;2023-04-26T12:05:24;97639.63;;;12.79;45.51
71938;BME280;59810;48.800;9.086;2023-04-26T12:07:51;97639.47;;;13.01;44.89
71938;BME280;59810;48.800;9.086;2023-04-26T12:10:22;97641.72;;;12.67;48.30
71938;BME280;59810;48.800;9.086;2023-04-26T12:12:53;97628.78;;;12.79;46.26
71938;BME280;59810;48.800;9.086;2023-04-26T12:15:23;97639.63;;;13.36;47.62
71938;BME280;59810;48.800;9.086;2023-04-26T12:18:05;97636.41;;;13.85;47.22
71938;BME280;59810;48.800;9.086;2023-04-26T12:20:34;97633.97;;;13.94;46.49
71938;BME280;59810;48.800;9.086;2023-04-26T12:23:11;97632.84;;;14.71;46.20
71938;BME280;59810;48.800;9.086;2023-04-26T12:25:38;97631.44;;;14.84;44.25
71938;BME280;59810;48.800;9.086;2023-04-26T12:28:06;97634.25;;;14.38;41.99
71938;BME280;59810;48.800;9.086;2023-04-26T12:30:36;97631.78;;;14.52;42.33
71938;BME280;59810;48.800;9.086;2023-04-26T12:33:02;97625.28;;;13.92;43.13
71938;BME280;59810;48.800;9.086;2023-04-26T12:35:28;97630.19;;;13.75;41.20
71938;BME280;59810;48.800;9.086;2023-04-26T12:37:53;97623.41;;;14.02;44.98
71938;BME280;59810;48.800;9.086;2023-04-26T12:40:24;97636.56;;;13.23;42.29
71938;BME280;59810;48.800;9.086;2023-04-26T12:42:52;97628.09;;;13.04;42.47
71938;BME280;59810;48.800;9.086;2023-04-26T12:45:20;97628.25;;;12.77;44.25
71938;BME280;59810;48.800;9.086;2023-04-26T12:47:46;97623.22;;;13.06;43.32
71938;BME280;59810;48.800;9.086;2023-04-26T12:50:12;97615.66;;;13.13;42.33
71938;BME280;59810;48.800;9.086;2023-04-26T12:52:39;97614.41;;;13.41;44.79
71938;BME280;59810;48.800;9.086;2023-04-26T12:55:09;97617.28;;;13.14;45.24
71938;BME280;59810;48.800;9.086;2023-04-26T12:57:38;97613.38;;;12.90;45.05
71938;BME280;59810;48.800;9.086;2023-04-26T13:00:05;97619.28;;;13.39;41.64
71938;BME280;59810;48.800;9.086;2023-04-26T13:02:32;97611.16;;;13.64;41.97
71938;BME280;59810;48.800;9.086;2023-04-26T13:04:59;97613.31;;;14.23;41.23
71938;BME280;59810;48.800;9.086;2023-04-26T13:07:37;97608.69;;;14.54;38.94
71938;BME280;59810;48.800;9.086;2023-04-26T13:10:04;97607.63;;;14.50;39.54
71938;BME280;59810;48.800;9.086;2023-04-26T13:12:29;97609.25;;;14.26;39.55
71938;BME280;59810;48.800;9.086;2023-04-26T13:14:59;97608.16;;;14.22;41.41
71938;BME280;59810;48.800;9.086;2023-04-26T13:17:25;97614.13;;;14.24;41.47
71938;BME280;59810;48.800;9.086;2023-04-26T13:19:51;97610.06;;;14.26;39.71
71938;BME280;59810;48.800;9.086;2023-04-26T13:22:19;97607.13;;;14.08;39.35
71938;BME280;59810;48.800;9.086;2023-04-26T13:24:45;97607.09;;;13.62;41.62
71938;BME280;59810;48.800;9.086;2023-04-26T13:27:10;97614.13;;;13.37;41.73
71938;BME280;59810;48.800;9.086;2023-04-26T13:29:37;97603.28;;;13.48;41.90
71938;BME280;59810;48.800;9.086;2023-04-26T13:32:02;97600.84;;;13.51;43.79
71938;BME280;59810;48.800;9.086;2023-04-26T13:34:28;97601.13;;;13.60;44.69
71938;BME280;59810;48.800;9.086;2023-04-26T13:36:55;97601.69;;;13.77;44.07